sensor_id;sensor_type;location;lat;lon;timestamp;pressure;altitude;pressure_sealevel;temperature;humidity
46756;BME280;32506;52.826;-1.192;2022-09-24T00:01:24;100991.66;;;12.01;62.28
46756;BME280;32506;52.826;-1.192;2022-09-24T00:03:53;100997.63;;;11.96;62.58
46756;BME280;32506;52.826;-1.192;2022-09-24T00:06:20;100999.88;;;11.92;62.94
46756;BME280;32506;52.826;-1.192;2022-09-24T00:08:47;101000.50;;;11.88;63.07
46756;BME280;32506;52.826;-1.192;2022-09-24T00:11:13;101003.63;;;11.85;62.87
46756;BME280;32506;52.826;-1.192;2022-09-24T00:13:40;100997.03;;;11.81;62.68
46756;BME280;32506;52.826;-1.192;2022-09-24T00:16:09;101000.13;;;11.78;62.69
46756;BME280;32506;52.826;-1.192;2022-09-24T00:18:35;101001.38;;;11.75;62.84
46756;BME280;32506;52.826;-1.192;2022-09-24T00:21:19;101005.31;;;11.72;63.29
46756;BME280;32506;52.826;-1.192;2022-09-24T00:23:50;100999.75;;;11.67;63.60
46756;BME280;32506;52.826;-1.192;2022-09-24T00:26:15;100996.66;;;11.64;64.09
46756;BME280;32506;52.826;-1.192;2022-09-24T00:28:59;100998.13;;;11.59;64.12
46756;BME280;32506;52.826;-1.192;2022-09-24T00:31:25;100998.75;;;11.55;63.62
46756;BME280;32506;52.826;-1.192;2022-09-24T00:33:52;100997.31;;;11.52;63.83
46756;BME280;32506;52.826;-1.192;2022-09-24T00:36:19;101001.22;;;11.50;63.59
46756;BME280;32506;52.826;-1.192;2022-09-24T00:38:51;100992.78;;;11.46;64.26
46756;BME280;32506;52.826;-1.192;2022-09-24T00:41:23;100995.03;;;11.42;64.07
46756;BME280;32506;52.826;-1.192;2022-09-24T00:43:49;100997.34;;;11.39;64.02
46756;BME280;32506;52.826;-1.192;2022-09-24T00:46:24;100998.16;;;11.33;63.69
46756;BME280;32506;52.826;-1.192;2022-09-24T00:49:00;100995.06;;;11.29;63.74
46756;BME280;32506;52.826;-1.192;2022-09-24T00:51:28;100996.28;;;11.27;63.69
46756;BME280;32506;52.826;-1.192;2022-09-24T00:54:03;100997.13;;;11.20;64.00
46756;BME280;32506;52.826;-1.192;2022-09-24T00:56:33;101001.25;;;11.16;64.37
46756;BME280;32506;52.826;-1.192;2022-09-24T00:59:01;100993.44;;;11.15;64.44
46756;BME280;32506;52.826;-1.192;2022-09-24T01:01:28;100994.69;;;11.12;64.06
46756;BME280;32506;52.826;-1.192;2022-09-24T01:03:57;100996.94;;;11.08;64.73
46756;BME280;32506;52.826;-1.192;2022-09-24T01:06:26;100995.50;;;11.06;64.47
46756;BME280;32506;52.826;-1.192;2022-09-24T01:08:53;100993.22;;;11.03;64.46
46756;BME280;32506;52.826;-1.192;2022-09-24T01:16:55;100997.94;;;10.94;64.91
46756;BME280;32506;52.826;-1.192;2022-09-24T01:30:43;100987.88;;;10.76;65.13
46756;BME280;32506;52.826;-1.192;2022-09-24T01:33:16;100990.97;;;10.73;65.54
46756;BME280;32506;52.826;-1.192;2022-09-24T01:35:49;100984.16;;;10.70;65.46
46756;BME280;32506;52.826;-1.192;2022-09-24T01:38:19;100980.03;;;10.68;65.57
46756;BME280;32506;52.826;-1.192;2022-09-24T01:40:46;100979.41;;;10.66;65.58
46756;BME280;32506;52.826;-1.192;2022-09-24T01:43:15;100980.03;;;10.61;65.26
46756;BME280;32506;52.826;-1.192;2022-09-24T01:45:41;100980.25;;;10.60;65.78
46756;BME280;32506;52.826;-1.192;2022-09-24T01:48:07;100979.59;;;10.57;65.86
46756;BME280;32506;52.826;-1.192;2022-09-24T01:50:57;100977.34;;;10.54;65.69
46756;BME280;32506;52.826;-1.192;2022-09-24T01:53:32;100973.44;;;10.50;66.24
46756;BME280;32506;52.826;-1.192;2022-09-24T01:56:05;100979.81;;;10.49;65.98
46756;BME280;32506;52.826;-1.192;2022-09-24T01:58:39;100974.88;;;10.46;66.21
46756;BME280;32506;52.826;-1.192;2022-09-24T02:01:06;100971.34;;;10.46;66.27
46756;BME280;32506;52.826;-1.192;2022-09-24T02:03:35;100964.97;;;10.40;66.44
46756;BME280;32506;52.826;-1.192;2022-09-24T02:06:35;100971.53;;;10.37;66.32
46756;BME280;32506;52.826;-1.192;2022-09-24T02:09:03;100960.41;;;10.34;66.67
46756;BME280;32506;52.826;-1.192;2022-09-24T02:11:30;100971.28;;;10.32;66.47
46756;BME280;32506;52.826;-1.192;2022-09-24T02:14:15;100967.16;;;10.30;66.66
46756;BME280;32506;52.826;-1.192;2022-09-24T02:16:48;100966.56;;;10.28;66.88
46756;BME280;32506;52.826;-1.192;2022-09-24T02:19:18;100966.13;;;10.24;66.96
46756;BME280;32506;52.826;-1.192;2022-09-24T02:21:46;100957.69;;;10.20;66.65
46756;BME280;32506;52.826;-1.192;2022-09-24T02:24:22;100964.91;;;10.20;66.68
46756;BME280;32506;52.826;-1.192;2022-09-24T02:26:49;100967.97;;;10.17;66.97
46756;BME280;32506;52.826;-1.192;2022-09-24T02:29:15;100965.69;;;10.14;66.86
46756;BME280;32506;52.826;-1.192;2022-09-24T02:31:48;100965.88;;;10.12;67.03
46756;BME280;32506;52.826;-1.192;2022-09-24T02:34:22;100966.09;;;10.11;67.27
46756;BME280;32506;52.826;-1.192;2022-09-24T02:36:53;100961.16;;;10.07;67.01
46756;BME280;32506;52.826;-1.192;2022-09-24T02:39:19;100959.06;;;10.03;66.95
46756;BME280;32506;52.826;-1.192;2022-09-24T02:41:46;100969.16;;;10.01;66.57
46756;BME280;32506;52.826;-1.192;2022-09-24T02:44:16;100967.69;;;9.98;66.96
46756;BME280;32506;52.826;-1.192;2022-09-24T02:46:43;100978.59;;;9.97;66.96
46756;BME280;32506;52.826;-1.192;2022-09-24T02:49:09;100975.28;;;9.95;66.85
46756;BME280;32506;52.826;-1.192;2022-09-24T02:51:35;100980.00;;;9.93;66.96
46756;BME280;32506;52.826;-1.192;2022-09-24T02:54:01;100983.06;;;9.89;66.96
46756;BME280;32506;52.826;-1.192;2022-09-24T02:56:27;100972.56;;;9.88;66.94
46756;BME280;32506;52.826;-1.192;2022-09-24T02:58:53;100978.31;;;9.85;67.38
46756;BME280;32506;52.826;-1.192;2022-09-24T03:01:18;100978.53;;;9.83;67.09
46756;BME280;32506;52.826;-1.192;2022-09-24T03:03:44;100984.06;;;9.82;67.26
46756;BME280;32506;52.826;-1.192;2022-09-24T03:06:10;100975.41;;;9.80;67.43
46756;BME280;32506;52.826;-1.192;2022-09-24T03:08:38;100976.63;;;9.77;67.59
46756;BME280;32506;52.826;-1.192;2022-09-24T03:11:03;100983.19;;;9.74;67.02
46756;BME280;32506;52.826;-1.192;2022-09-24T03:13:29;100985.03;;;9.74;67.55
46756;BME280;32506;52.826;-1.192;2022-09-24T03:15:54;100988.13;;;9.71;67.47
46756;BME280;32506;52.826;-1.192;2022-09-24T03:18:20;100983.78;;;9.70;67.99
46756;BME280;32506;52.826;-1.192;2022-09-24T03:23:21;100990.34;;;9.67;67.31
46756;BME280;32506;52.826;-1.192;2022-09-24T03:25:46;100988.88;;;9.65;67.45
46756;BME280;32506;52.826;-1.192;2022-09-24T03:28:11;100981.09;;;9.63;67.89
46756;BME280;32506;52.826;-1.192;2022-09-24T03:30:39;100988.66;;;9.60;67.84
46756;BME280;32506;52.826;-1.192;2022-09-24T03:33:23;100986.38;;;9.56;67.48
46756;BME280;32506;52.826;-1.192;2022-09-24T03:35:49;100983.72;;;9.56;67.57
46756;BME280;32506;52.826;-1.192;2022-09-24T03:38:18;100995.59;;;9.54;67.73
46756;BME280;32506;52.826;-1.192;2022-09-24T03:40:44;100994.16;;;9.51;67.61
46756;BME280;32506;52.826;-1.192;2022-09-24T03:43:09;100983.88;;;9.48;67.80
46756;BME280;32506;52.826;-1.192;2022-09-24T03:45:35;100989.41;;;9.47;67.69
46756;BME280;32506;52.826;-1.192;2022-09-24T03:48:02;100986.09;;;9.45;67.63
46756;BME280;32506;52.826;-1.192;2022-09-24T03:50:27;100983.81;;;9.42;68.21
46756;BME280;32506;52.826;-1.192;2022-09-24T03:52:52;100985.66;;;9.41;67.92
46756;BME280;32506;52.826;-1.192;2022-09-24T03:55:18;100986.69;;;9.40;67.93
46756;BME280;32506;52.826;-1.192;2022-09-24T03:57:43;100986.06;;;9.38;68.00
46756;BME280;32506;52.826;-1.192;2022-09-24T04:00:10;100982.75;;;9.36;68.12
46756;BME280;32506;52.826;-1.192;2022-09-24T04:02:35;100988.28;;;9.34;67.87
46756;BME280;32506;52.826;-1.192;2022-09-24T04:05:01;100987.66;;;9.32;68.00
46756;BME280;32506;52.826;-1.192;2022-09-24T04:07:26;100999.34;;;9.31;67.97
46756;BME280;32506;52.826;-1.192;2022-09-24T04:09:51;100993.56;;;9.28;68.20
46756;BME280;32506;52.826;-1.192;2022-09-24T04:12:17;100998.09;;;9.27;67.90
46756;BME280;32506;52.826;-1.192;2022-09-24T04:14:42;100998.28;;;9.26;68.33
46756;BME280;32506;52.826;-1.192;2022-09-24T04:17:08;100996.81;;;9.23;68.55
46756;BME280;32506;52.826;-1.192;2022-09-24T04:19:34;100998.03;;;9.20;68.51
46756;BME280;32506;52.826;-1.192;2022-09-24T04:21:59;101003.75;;;9.17;68.65
46756;BME280;32506;52.826;-1.192;2022-09-24T04:24:25;101006.78;;;9.14;68.32
46756;BME280;32506;52.826;-1.192;2022-09-24T04:26:51;101006.38;;;9.11;68.42
46756;BME280;32506;52.826;-1.192;2022-09-24T04:29:16;101004.72;;;9.10;68.10
46756;BME280;32506;52.826;-1.192;2022-09-24T04:31:42;101001.59;;;9.06;67.96
46756;BME280;32506;52.826;-1.192;2022-09-24T04:34:08;100999.13;;;9.04;67.59
46756;BME280;32506;52.826;-1.192;2022-09-24T04:36:34;100998.69;;;9.01;67.45
46756;BME280;32506;52.826;-1.192;2022-09-24T04:38:59;101004.84;;;9.01;67.34
46756;BME280;32506;52.826;-1.192;2022-09-24T04:41:25;101004.22;;;8.99;67.84
46756;BME280;32506;52.826;-1.192;2022-09-24T04:43:50;101004.41;;;8.98;67.94
46756;BME280;32506;52.826;-1.192;2022-09-24T04:46:16;101007.28;;;8.96;68.45
46756;BME280;32506;52.826;-1.192;2022-09-24T04:48:43;101006.63;;;8.94;68.86
46756;BME280;32506;52.826;-1.192;2022-09-24T04:51:09;101013.00;;;8.93;68.42
46756;BME280;32506;52.826;-1.192;2022-09-24T04:53:35;101010.50;;;8.92;68.84
46756;BME280;32506;52.826;-1.192;2022-09-24T04:56:05;101010.69;;;8.90;68.73
46756;BME280;32506;52.826;-1.192;2022-09-24T04:58:36;101017.06;;;8.89;68.44
46756;BME280;32506;52.826;-1.192;2022-09-24T05:01:02;101015.41;;;8.88;68.62
46756;BME280;32506;52.826;-1.192;2022-09-24T05:03:28;101013.75;;;8.87;68.41
46756;BME280;32506;52.826;-1.192;2022-09-24T05:05:53;101019.28;;;8.85;68.16
46756;BME280;32506;52.826;-1.192;2022-09-24T05:08:19;101012.09;;;8.86;68.34
46756;BME280;32506;52.826;-1.192;2022-09-24T05:10:45;101012.28;;;8.84;68.57
46756;BME280;32506;52.826;-1.192;2022-09-24T05:13:10;101012.66;;;8.81;68.32
46756;BME280;32506;52.826;-1.192;2022-09-24T05:15:35;101013.69;;;8.80;68.64
46756;BME280;32506;52.826;-1.192;2022-09-24T05:18:01;101019.00;;;8.80;68.91
46756;BME280;32506;52.826;-1.192;2022-09-24T05:20:26;101017.56;;;8.78;68.71
46756;BME280;32506;52.826;-1.192;2022-09-24T05:22:52;101019.41;;;8.77;68.74
46756;BME280;32506;52.826;-1.192;2022-09-24T05:25:19;101020.41;;;8.76;68.74
46756;BME280;32506;52.826;-1.192;2022-09-24T05:27:50;101020.59;;;8.75;68.49
46756;BME280;32506;52.826;-1.192;2022-09-24T05:30:17;101023.47;;;8.73;68.53
46756;BME280;32506;52.826;-1.192;2022-09-24T05:32:43;101023.63;;;8.71;68.43
46756;BME280;32506;52.826;-1.192;2022-09-24T05:35:09;101027.53;;;8.69;68.46
46756;BME280;32506;52.826;-1.192;2022-09-24T05:37:36;101027.69;;;8.67;68.39
46756;BME280;32506;52.826;-1.192;2022-09-24T05:40:03;101031.38;;;8.66;68.76
46756;BME280;32506;52.826;-1.192;2022-09-24T05:42:49;101030.75;;;8.64;68.13
46756;BME280;32506;52.826;-1.192;2022-09-24T05:45:15;101032.78;;;8.62;68.41
46756;BME280;32506;52.826;-1.192;2022-09-24T05:47:42;101045.44;;;8.60;68.54
46756;BME280;32506;52.826;-1.192;2022-09-24T05:50:07;101041.13;;;8.59;69.10
46756;BME280;32506;52.826;-1.192;2022-09-24T05:52:33;101039.50;;;8.58;68.49
46756;BME280;32506;52.826;-1.192;2022-09-24T05:54:58;101050.16;;;8.58;68.94
46756;BME280;32506;52.826;-1.192;2022-09-24T05:57:24;101045.66;;;8.59;68.87
46756;BME280;32506;52.826;-1.192;2022-09-24T05:59:49;101045.84;;;8.57;68.98
46756;BME280;32506;52.826;-1.192;2022-09-24T06:02:15;101055.66;;;8.56;68.88
46756;BME280;32506;52.826;-1.192;2022-09-24T06:04:40;101060.16;;;8.56;68.89
46756;BME280;32506;52.826;-1.192;2022-09-24T06:07:05;101060.16;;;8.56;68.61
46756;BME280;32506;52.826;-1.192;2022-09-24T06:09:31;101058.50;;;8.55;68.99
46756;BME280;32506;52.826;-1.192;2022-09-24T06:11:56;101057.88;;;8.53;68.66
46756;BME280;32506;52.826;-1.192;2022-09-24T06:14:22;101057.69;;;8.54;69.03
46756;BME280;32506;52.826;-1.192;2022-09-24T06:16:47;101064.84;;;8.54;69.30
46756;BME280;32506;52.826;-1.192;2022-09-24T06:19:13;101066.69;;;8.53;69.41
46756;BME280;32506;52.826;-1.192;2022-09-24T06:21:38;101073.03;;;8.52;69.25
46756;BME280;32506;52.826;-1.192;2022-09-24T06:24:03;101076.72;;;8.51;68.75
46756;BME280;32506;52.826;-1.192;2022-09-24T06:26:29;101075.69;;;8.52;68.87
46756;BME280;32506;52.826;-1.192;2022-09-24T06:28:55;101075.69;;;8.52;68.45
46756;BME280;32506;52.826;-1.192;2022-09-24T06:31:20;101081.03;;;8.52;68.87
46756;BME280;32506;52.826;-1.192;2022-09-24T06:33:46;101080.00;;;8.53;68.63
46756;BME280;32506;52.826;-1.192;2022-09-24T06:36:11;101083.69;;;8.52;68.61
46756;BME280;32506;52.826;-1.192;2022-09-24T06:38:37;101089.66;;;8.54;68.57
46756;BME280;32506;52.826;-1.192;2022-09-24T06:41:05;101089.66;;;8.54;68.96
46756;BME280;32506;52.826;-1.192;2022-09-24T06:43:31;101093.13;;;8.55;68.79
46756;BME280;32506;52.826;-1.192;2022-09-24T06:45:58;101090.28;;;8.56;68.84
46756;BME280;32506;52.826;-1.192;2022-09-24T06:48:24;101084.97;;;8.56;68.59
46756;BME280;32506;52.826;-1.192;2022-09-24T06:50:51;101094.59;;;8.57;68.34
46756;BME280;32506;52.826;-1.192;2022-09-24T06:53:17;101093.41;;;8.60;68.08
46756;BME280;32506;52.826;-1.192;2022-09-24T06:55:43;101092.41;;;8.61;67.73
46756;BME280;32506;52.826;-1.192;2022-09-24T06:58:14;101091.22;;;8.64;68.90
46756;BME280;32506;52.826;-1.192;2022-09-24T07:00:40;101090.19;;;8.65;68.02
46756;BME280;32506;52.826;-1.192;2022-09-24T07:03:12;101088.16;;;8.67;67.58
46756;BME280;32506;52.826;-1.192;2022-09-24T07:05:38;101090.44;;;8.70;67.34
46756;BME280;32506;52.826;-1.192;2022-09-24T07:08:03;101090.25;;;8.71;67.18
46756;BME280;32506;52.826;-1.192;2022-09-24T07:10:28;101097.88;;;8.75;67.25
46756;BME280;32506;52.826;-1.192;2022-09-24T07:12:55;101098.50;;;8.77;67.47
46756;BME280;32506;52.826;-1.192;2022-09-24T07:15:20;101098.97;;;8.80;67.57
46756;BME280;32506;52.826;-1.192;2022-09-24T07:17:46;101099.63;;;8.82;67.16
46756;BME280;32506;52.826;-1.192;2022-09-24T07:20:11;101100.06;;;8.86;66.98
46756;BME280;32506;52.826;-1.192;2022-09-24T07:22:40;101106.84;;;8.88;67.87
46756;BME280;32506;52.826;-1.192;2022-09-24T07:25:09;101105.66;;;8.91;67.50
46756;BME280;32506;52.826;-1.192;2022-09-24T07:27:36;101113.91;;;8.96;68.26
46756;BME280;32506;52.826;-1.192;2022-09-24T07:30:04;101114.38;;;9.00;68.67
46756;BME280;32506;52.826;-1.192;2022-09-24T07:32:30;101119.31;;;9.03;68.79
46756;BME280;32506;52.826;-1.192;2022-09-24T07:34:55;101121.41;;;9.07;70.49
46756;BME280;32506;52.826;-1.192;2022-09-24T07:37:21;101129.03;;;9.11;70.32
46756;BME280;32506;52.826;-1.192;2022-09-24T07:39:46;101123.13;;;9.15;70.03
46756;BME280;32506;52.826;-1.192;2022-09-24T07:42:12;101125.84;;;9.22;70.13
46756;BME280;32506;52.826;-1.192;2022-09-24T07:44:37;101123.63;;;9.26;70.37
46756;BME280;32506;52.826;-1.192;2022-09-24T07:47:03;101124.72;;;9.31;70.80
46756;BME280;32506;52.826;-1.192;2022-09-24T07:49:28;101124.78;;;9.38;70.73
46756;BME280;32506;52.826;-1.192;2022-09-24T07:51:56;101123.19;;;9.44;70.60
46756;BME280;32506;52.826;-1.192;2022-09-24T07:54:22;101123.88;;;9.52;70.53
46756;BME280;32506;52.826;-1.192;2022-09-24T07:56:47;101129.06;;;9.61;70.94
46756;BME280;32506;52.826;-1.192;2022-09-24T07:59:13;101133.63;;;9.67;70.93
46756;BME280;32506;52.826;-1.192;2022-09-24T08:01:38;101120.34;;;9.73;70.76
46756;BME280;32506;52.826;-1.192;2022-09-24T08:04:05;101120.38;;;9.80;70.82
46756;BME280;32506;52.826;-1.192;2022-09-24T08:06:33;101129.72;;;9.91;71.67
46756;BME280;32506;52.826;-1.192;2022-09-24T08:08:59;101127.31;;;10.03;71.75
46756;BME280;32506;52.826;-1.192;2022-09-24T08:11:25;101131.28;;;10.14;71.20
46756;BME280;32506;52.826;-1.192;2022-09-24T08:13:50;101135.06;;;10.26;71.37
46756;BME280;32506;52.826;-1.192;2022-09-24T08:16:16;101141.75;;;10.37;70.95
46756;BME280;32506;52.826;-1.192;2022-09-24T08:18:43;101135.00;;;10.48;70.87
46756;BME280;32506;52.826;-1.192;2022-09-24T08:21:10;101144.50;;;10.57;70.49
46756;BME280;32506;52.826;-1.192;2022-09-24T08:23:39;101144.94;;;10.67;70.35
46756;BME280;32506;52.826;-1.192;2022-09-24T08:26:05;101158.13;;;10.75;69.99
46756;BME280;32506;52.826;-1.192;2022-09-24T08:28:31;101154.91;;;10.87;69.31
46756;BME280;32506;52.826;-1.192;2022-09-24T08:30:57;101160.06;;;10.95;68.94
46756;BME280;32506;52.826;-1.192;2022-09-24T08:33:24;101161.53;;;11.04;68.84
46756;BME280;32506;52.826;-1.192;2022-09-24T08:35:50;101155.78;;;11.14;68.78
46756;BME280;32506;52.826;-1.192;2022-09-24T08:38:15;101166.94;;;11.24;68.48
46756;BME280;32506;52.826;-1.192;2022-09-24T08:40:52;101167.56;;;11.33;67.99
46756;BME280;32506;52.826;-1.192;2022-09-24T08:46:22;101172.53;;;11.56;67.70
46756;BME280;32506;52.826;-1.192;2022-09-24T08:49:13;101170.09;;;11.68;67.13
46756;BME280;32506;52.826;-1.192;2022-09-24T08:52:04;101183.47;;;11.82;67.06
46756;BME280;32506;52.826;-1.192;2022-09-24T08:54:33;101182.22;;;11.91;67.28
46756;BME280;32506;52.826;-1.192;2022-09-24T08:57:04;101189.25;;;11.99;66.61
46756;BME280;32506;52.826;-1.192;2022-09-24T08:59:36;101188.00;;;12.08;66.30
46756;BME280;32506;52.826;-1.192;2022-09-24T09:02:22;101186.53;;;12.19;66.18
46756;BME280;32506;52.826;-1.192;2022-09-24T09:05:23;101182.19;;;12.31;65.71
46756;BME280;32506;52.826;-1.192;2022-09-24T09:08:00;101174.97;;;12.38;65.57
46756;BME280;32506;52.826;-1.192;2022-09-24T09:10:32;101180.69;;;12.49;66.14
46756;BME280;32506;52.826;-1.192;2022-09-24T09:13:33;101185.22;;;12.62;65.27
46756;BME280;32506;52.826;-1.192;2022-09-24T09:16:06;101189.31;;;12.71;65.28
46756;BME280;32506;52.826;-1.192;2022-09-24T09:18:41;101184.50;;;12.80;65.27
46756;BME280;32506;52.826;-1.192;2022-09-24T09:21:17;101191.69;;;12.92;65.02
46756;BME280;32506;52.826;-1.192;2022-09-24T09:23:50;101189.59;;;13.01;64.69
46756;BME280;32506;52.826;-1.192;2022-09-24T09:26:17;101196.16;;;13.12;64.75
46756;BME280;32506;52.826;-1.192;2022-09-24T09:28:45;101196.47;;;13.22;64.37
46756;BME280;32506;52.826;-1.192;2022-09-24T09:39:47;101193.09;;;13.72;63.51
46756;BME280;32506;52.826;-1.192;2022-09-24T09:42:29;101202.69;;;13.87;63.38
46756;BME280;32506;52.826;-1.192;2022-09-24T09:45:02;101195.75;;;13.98;62.91
46756;BME280;32506;52.826;-1.192;2022-09-24T09:47:41;101194.03;;;14.10;62.55
46756;BME280;32506;52.826;-1.192;2022-09-24T09:50:26;101202.16;;;14.22;62.59
46756;BME280;32506;52.826;-1.192;2022-09-24T09:52:53;101205.16;;;14.32;61.10
46756;BME280;32506;52.826;-1.192;2022-09-24T09:55:25;101198.84;;;14.45;61.62
46756;BME280;32506;52.826;-1.192;2022-09-24T09:57:51;101205.69;;;14.59;61.46
46756;BME280;32506;52.826;-1.192;2022-09-24T10:00:33;101204.91;;;14.77;61.52
46756;BME280;32506;52.826;-1.192;2022-09-24T10:02:59;101205.84;;;15.02;61.79
46756;BME280;32506;52.826;-1.192;2022-09-24T10:05:26;101200.91;;;15.29;61.45
46756;BME280;32506;52.826;-1.192;2022-09-24T10:07:56;101201.94;;;15.58;61.02
46756;BME280;32506;52.826;-1.192;2022-09-24T10:10:24;101202.34;;;15.86;60.73
46756;BME280;32506;52.826;-1.192;2022-09-24T10:13:07;101208.13;;;16.13;59.89
46756;BME280;32506;52.826;-1.192;2022-09-24T10:15:34;101202.13;;;16.35;59.17
46756;BME280;32506;52.826;-1.192;2022-09-24T10:18:03;101202.56;;;16.55;58.07
46756;BME280;32506;52.826;-1.192;2022-09-24T10:20:31;101206.16;;;16.73;56.65
46756;BME280;32506;52.826;-1.192;2022-09-24T10:23:06;101200.25;;;16.88;56.24
46756;BME280;32506;52.826;-1.192;2022-09-24T10:25:37;101198.03;;;16.97;54.63
46756;BME280;32506;52.826;-1.192;2022-09-24T10:28:07;101203.28;;;17.03;54.55
46756;BME280;32506;52.826;-1.192;2022-09-24T10:31:05;101203.97;;;17.10;53.51
46756;BME280;32506;52.826;-1.192;2022-09-24T10:33:39;101209.22;;;17.17;53.75
46756;BME280;32506;52.826;-1.192;2022-09-24T10:36:26;101206.13;;;17.25;53.45
46756;BME280;32506;52.826;-1.192;2022-09-24T10:41:34;101207.91;;;17.49;54.47
46756;BME280;32506;52.826;-1.192;2022-09-24T10:44:10;101210.38;;;17.67;54.53
46756;BME280;32506;52.826;-1.192;2022-09-24T10:55:38;101205.44;;;18.54;51.60
46756;BME280;32506;52.826;-1.192;2022-09-24T11:06:04;101210.38;;;19.02;48.88
46756;BME280;32506;52.826;-1.192;2022-09-24T11:22:47;101219.28;;;19.84;49.22
46756;BME280;32506;52.826;-1.192;2022-09-24T11:25:49;101215.69;;;20.11;47.85
46756;BME280;32506;52.826;-1.192;2022-09-24T11:28:41;101203.09;;;20.42;47.29
46756;BME280;32506;52.826;-1.192;2022-09-24T11:31:35;101214.94;;;20.69;45.62
46756;BME280;32506;52.826;-1.192;2022-09-24T11:50:58;101218.47;;;20.74;42.77
46756;BME280;32506;52.826;-1.192;2022-09-24T11:53:37;101222.22;;;20.63;43.06
46756;BME280;32506;52.826;-1.192;2022-09-24T11:56:20;101220.81;;;20.55;42.48
46756;BME280;32506;52.826;-1.192;2022-09-24T12:01:39;101220.53;;;20.47;43.37
46756;BME280;32506;52.826;-1.192;2022-09-24T12:04:18;101223.75;;;20.43;43.07
46756;BME280;32506;52.826;-1.192;2022-09-24T12:06:50;101221.81;;;20.39;43.26
46756;BME280;32506;52.826;-1.192;2022-09-24T12:09:36;101232.13;;;20.37;43.16
46756;BME280;32506;52.826;-1.192;2022-09-24T12:12:11;101218.78;;;20.30;43.26
46756;BME280;32506;52.826;-1.192;2022-09-24T12:17:24;101222.25;;;20.20;43.63
46756;BME280;32506;52.826;-1.192;2022-09-24T12:20:13;101220.06;;;20.17;43.50
46756;BME280;32506;52.826;-1.192;2022-09-24T12:22:43;101215.69;;;20.11;43.66
46756;BME280;32506;52.826;-1.192;2022-09-24T12:25:11;101226.81;;;20.09;43.39
46756;BME280;32506;52.826;-1.192;2022-09-24T12:27:37;101224.63;;;20.06;43.24
46756;BME280;32506;52.826;-1.192;2022-09-24T12:33:16;101226.50;;;20.06;42.72
46756;BME280;32506;52.826;-1.192;2022-09-24T12:41:24;101231.59;;;19.97;42.53
46756;BME280;32506;52.826;-1.192;2022-09-24T12:46:51;101235.63;;;19.89;42.91
46756;BME280;32506;52.826;-1.192;2022-09-24T12:51:55;101235.81;;;19.83;43.03
46756;BME280;32506;52.826;-1.192;2022-09-24T12:54:35;101229.25;;;19.78;42.55
46756;BME280;32506;52.826;-1.192;2022-09-24T12:57:24;101237.34;;;19.73;42.73
46756;BME280;32506;52.826;-1.192;2022-09-24T13:00:02;101231.34;;;19.71;42.57
46756;BME280;32506;52.826;-1.192;2022-09-24T13:03:02;101235.16;;;19.70;42.34
46756;BME280;32506;52.826;-1.192;2022-09-24T13:08:00;101238.41;;;19.72;42.47
46756;BME280;32506;52.826;-1.192;2022-09-24T13:10:29;101239.25;;;19.73;42.60
46756;BME280;32506;52.826;-1.192;2022-09-24T13:12:56;101235.44;;;19.74;42.41
46756;BME280;32506;52.826;-1.192;2022-09-24T13:15:35;101233.03;;;19.77;42.49
46756;BME280;32506;52.826;-1.192;2022-09-24T13:20:36;101232.22;;;19.77;41.96
46756;BME280;32506;52.826;-1.192;2022-09-24T13:26:05;101230.59;;;19.76;42.02
46756;BME280;32506;52.826;-1.192;2022-09-24T13:28:37;101227.16;;;19.86;43.11
46756;BME280;32506;52.826;-1.192;2022-09-24T13:33:49;101224.00;;;20.42;43.61
46756;BME280;32506;52.826;-1.192;2022-09-24T13:36:20;101227.19;;;20.76;42.77
46756;BME280;32506;52.826;-1.192;2022-09-24T13:44:33;101216.75;;;21.37;40.21
46756;BME280;32506;52.826;-1.192;2022-09-24T13:49:43;101220.06;;;21.80;40.21
46756;BME280;32506;52.826;-1.192;2022-09-24T13:55:07;101222.16;;;22.29;39.03
46756;BME280;32506;52.826;-1.192;2022-09-24T13:57:46;101216.16;;;22.43;37.73
46756;BME280;32506;52.826;-1.192;2022-09-24T14:00:15;101221.84;;;22.46;37.87
46756;BME280;32506;52.826;-1.192;2022-09-24T14:05:18;101223.53;;;22.32;36.69
46756;BME280;32506;52.826;-1.192;2022-09-24T14:07:56;101227.34;;;22.21;36.73
46756;BME280;32506;52.826;-1.192;2022-09-24T14:10:23;101233.63;;;22.06;37.04
46756;BME280;32506;52.826;-1.192;2022-09-24T14:15:33;101231.75;;;21.86;38.61
46756;BME280;32506;52.826;-1.192;2022-09-24T14:18:00;101238.28;;;21.85;39.49
46756;BME280;32506;52.826;-1.192;2022-09-24T14:20:29;101240.47;;;21.83;39.95
46756;BME280;32506;52.826;-1.192;2022-09-24T14:22:57;101250.78;;;21.81;39.26
46756;BME280;32506;52.826;-1.192;2022-09-24T14:25:28;101252.16;;;21.78;39.16
46756;BME280;32506;52.826;-1.192;2022-09-24T14:27:54;101258.13;;;21.75;39.34
46756;BME280;32506;52.826;-1.192;2022-09-24T14:30:26;101267.13;;;21.70;39.52
46756;BME280;32506;52.826;-1.192;2022-09-24T14:33:14;101261.69;;;21.65;39.63
46756;BME280;32506;52.826;-1.192;2022-09-24T14:35:45;101269.03;;;21.59;40.38
46756;BME280;32506;52.826;-1.192;2022-09-24T14:38:16;101266.78;;;21.51;40.89
46756;BME280;32506;52.826;-1.192;2022-09-24T14:40:49;101261.06;;;21.42;40.99
46756;BME280;32506;52.826;-1.192;2022-09-24T14:43:21;101268.13;;;21.33;41.06
46756;BME280;32506;52.826;-1.192;2022-09-24T14:45:50;101266.19;;;21.23;41.33
46756;BME280;32506;52.826;-1.192;2022-09-24T14:48:31;101271.59;;;21.13;41.79
46756;BME280;32506;52.826;-1.192;2022-09-24T14:50:57;101276.47;;;21.01;42.07
46756;BME280;32506;52.826;-1.192;2022-09-24T14:53:29;101279.97;;;20.91;42.07
46756;BME280;32506;52.826;-1.192;2022-09-24T14:55:55;101276.63;;;20.78;42.54
46756;BME280;32506;52.826;-1.192;2022-09-24T14:58:31;101281.75;;;20.70;42.87
46756;BME280;32506;52.826;-1.192;2022-09-24T15:01:18;101279.22;;;20.58;43.55
46756;BME280;32506;52.826;-1.192;2022-09-24T15:03:48;101283.78;;;20.47;43.66
46756;BME280;32506;52.826;-1.192;2022-09-24T15:08:43;101281.75;;;20.27;44.02
46756;BME280;32506;52.826;-1.192;2022-09-24T15:11:15;101283.88;;;20.20;44.00